createdAt,value
2019-04-06T00:00:43.331Z,5.84
2019-04-06T00:01:43.331Z,5.88
2019-04-06T00:02:43.358Z,5.92
2019-04-06T00:03:43.387Z,5.90
2019-04-06T00:04:43.413Z,5.87
2019-04-06T00:05:43.442Z,5.73
2019-04-06T00:06:43.469Z,5.79
2019-04-06T00:07:43.496Z,5.69
2019-04-06T00:08:43.528Z,5.58
2019-04-06T00:09:43.555Z,5.81
2019-04-06T00:10:43.580Z,5.62
2019-04-06T00:11:43.607Z,5.70
2019-04-06T00:12:43.636Z,5.55
2019-04-06T00:13:43.664Z,5.41
2019-04-06T00:14:43.698Z,5.31
2019-04-06T00:15:43.717Z,5.19
2019-04-06T00:16:43.750Z,5.08
2019-04-06T00:17:43.778Z,5.07
2019-04-06T00:18:43.831Z,5.05
2019-04-06T00:19:43.829Z,5.04
2019-04-06T00:20:43.858Z,5.02
2019-04-06T00:21:43.887Z,5.02
2019-04-06T00:22:43.911Z,5.10
2019-04-06T00:23:43.938Z,5.33
2019-04-06T00:24:43.966Z,5.12
2019-04-06T00:25:44.999Z,5.02
2019-04-06T00:26:44.024Z,5.02
2019-04-06T00:27:44.049Z,4.92
2019-04-06T00:28:44.076Z,4.95
2019-04-06T00:29:44.114Z,5.05
2019-04-06T00:30:44.132Z,5.40
2019-04-06T00:31:44.158Z,5.33
2019-04-06T00:32:44.187Z,5.49
2019-04-06T00:33:44.213Z,5.56
2019-04-06T00:34:44.240Z,5.80
2019-04-06T00:35:44.269Z,5.70
2019-04-06T00:36:44.304Z,5.69
2019-04-06T00:37:44.322Z,5.59
2019-04-06T00:38:44.349Z,5.72
2019-04-06T00:39:44.391Z,5.87
2019-04-06T00:40:44.407Z,5.95
2019-04-06T00:41:44.434Z,5.80
2019-04-06T00:42:44.461Z,5.80
2019-04-06T00:43:44.487Z,5.72
2019-04-06T00:44:44.519Z,5.61
2019-04-06T00:45:44.545Z,5.54
2019-04-06T00:46:44.568Z,5.52
2019-04-06T00:47:44.599Z,5.36
2019-04-06T00:48:44.624Z,5.28
2019-04-06T00:49:44.651Z,5.23
2019-04-06T00:50:44.681Z,5.26
2019-04-06T00:51:44.706Z,5.28
2019-04-06T00:52:44.735Z,5.22
2019-04-06T00:53:44.765Z,5.22
2019-04-06T00:54:44.789Z,5.19
2019-04-06T00:55:55.035Z,5.34
2019-04-06T00:56:44.880Z,5.28
2019-04-06T00:57:44.872Z,5.12
2019-04-06T00:58:44.897Z,5.28
2019-04-06T00:59:44.930Z,5.37
2019-04-06T01:00:44.955Z,5.25
2019-04-06T01:01:44.986Z,5.18
2019-04-06T01:02:45.013Z,5.12
2019-04-06T01:03:45.037Z,4.98
2019-04-06T01:04:45.062Z,5.05
2019-04-06T01:05:45.094Z,5.13
2019-04-06T01:06:45.116Z,5.13
2019-04-06T01:07:45.145Z,5.10
2019-04-06T01:08:45.172Z,5.10
2019-04-06T01:09:45.203Z,5.22
2019-04-06T01:10:45.226Z,5.41
2019-04-06T01:11:45.254Z,5.41
2019-04-06T01:12:45.282Z,5.41
2019-04-06T01:13:45.308Z,5.37
2019-04-06T01:14:45.339Z,5.25
2019-04-06T01:15:45.366Z,5.15
2019-04-06T01:16:45.390Z,5.25
2019-04-06T01:17:45.421Z,5.19
2019-04-06T01:18:45.448Z,4.98
2019-04-06T01:19:45.487Z,4.95
2019-04-06T01:20:45.501Z,4.74
2019-04-06T01:21:45.532Z,4.68
2019-04-06T01:22:45.559Z,4.70
2019-04-06T01:23:45.585Z,4.82
2019-04-06T01:24:45.619Z,4.74
2019-04-06T01:25:45.639Z,4.75
2019-04-06T01:26:45.666Z,4.64
2019-04-06T01:27:45.691Z,4.66
2019-04-06T01:28:45.721Z,4.64
2019-04-06T01:29:45.747Z,4.68
2019-04-06T01:30:45.775Z,4.75
2019-04-06T01:31:45.799Z,4.87
2019-04-06T01:32:45.828Z,5.01
2019-04-06T01:33:45.857Z,4.97
2019-04-06T01:34:45.883Z,4.98
2019-04-06T01:35:45.909Z,4.75
2019-04-06T01:36:45.939Z,4.63
2019-04-06T01:37:45.964Z,4.63
2019-04-06T01:38:46.021Z,4.48
2019-04-06T01:39:46.020Z,4.38
2019-04-06T01:40:46.045Z,4.42
2019-04-06T01:41:46.104Z,4.50
2019-04-06T01:42:46.098Z,4.40
2019-04-06T01:43:46.130Z,4.28
2019-04-06T01:44:46.158Z,4.40
2019-04-06T01:45:46.180Z,4.50
2019-04-06T01:46:46.211Z,4.57
2019-04-06T01:47:46.237Z,4.70
2019-04-06T01:48:46.264Z,4.63
2019-04-06T01:49:46.291Z,4.64
2019-04-06T01:50:46.321Z,4.67
2019-04-06T01:51:46.348Z,4.60
2019-04-06T01:52:46.371Z,4.46
2019-04-06T01:53:46.401Z,4.50
2019-04-06T01:54:46.423Z,4.75
2019-04-06T01:55:46.451Z,4.92
2019-04-06T01:56:46.483Z,4.82
2019-04-06T01:57:46.521Z,4.76
2019-04-06T01:58:46.532Z,4.79
2019-04-06T01:59:46.566Z,4.67
2019-04-06T02:00:46.587Z,4.56
2019-04-06T02:01:46.614Z,4.49
2019-04-06T02:02:46.639Z,4.46
2019-04-06T02:03:46.666Z,4.40
2019-04-06T02:04:46.695Z,4.40
2019-04-06T02:05:46.770Z,4.48
2019-04-06T02:06:46.746Z,4.32
2019-04-06T02:07:46.779Z,4.45
2019-04-06T02:08:46.835Z,4.45
2019-04-06T02:09:46.873Z,4.36
2019-04-06T02:10:46.855Z,4.30
2019-04-06T02:11:46.884Z,4.22
2019-04-06T02:12:46.909Z,4.32
2019-04-06T02:13:46.936Z,4.24
2019-04-06T02:14:47.083Z,4.28
2019-04-06T02:15:46.991Z,4.42
2019-04-06T02:16:47.019Z,4.43
2019-04-06T02:17:47.046Z,4.45
2019-04-06T02:18:47.071Z,4.48
2019-04-06T02:19:47.099Z,4.48
2019-04-06T02:20:47.124Z,4.36
2019-04-06T02:21:47.154Z,4.32
2019-04-06T02:22:47.179Z,4.22
2019-04-06T02:23:47.204Z,4.25
2019-04-06T02:24:47.230Z,4.24
2019-04-06T02:25:47.261Z,4.24
2019-04-06T02:26:47.290Z,4.16
2019-04-06T02:27:47.315Z,4.24
2019-04-06T02:28:47.339Z,4.32
2019-04-06T02:29:47.366Z,4.22
2019-04-06T02:30:47.401Z,4.50
2019-04-06T02:31:47.419Z,4.40
2019-04-06T02:32:47.444Z,4.53
2019-04-06T02:33:47.477Z,4.57
2019-04-06T02:34:47.500Z,4.43
2019-04-06T02:35:47.754Z,4.49
2019-04-06T02:36:47.551Z,4.39
2019-04-06T02:37:47.656Z,4.46
2019-04-06T02:38:47.606Z,4.61
2019-04-06T02:39:47.637Z,4.64
2019-04-06T02:40:47.742Z,4.68
2019-04-06T02:41:47.719Z,4.70
2019-04-06T02:42:47.712Z,4.67
2019-04-06T02:43:47.743Z,4.75
2019-04-06T02:44:47.776Z,4.68
2019-04-06T02:45:47.815Z,4.76
2019-04-06T02:46:47.829Z,4.71
2019-04-06T02:47:47.848Z,4.74
2019-04-06T02:48:47.875Z,4.75
2019-04-06T02:49:47.975Z,4.75
2019-04-06T02:50:47.935Z,4.61
2019-04-06T02:51:47.954Z,4.64
2019-04-06T02:52:48.092Z,4.48
2019-04-06T02:53:48.017Z,4.34
2019-04-06T02:54:48.034Z,4.48
2019-04-06T02:55:48.088Z,4.61
2019-04-06T02:56:48.259Z,4.74
2019-04-06T02:57:48.115Z,4.78
2019-04-06T02:58:48.144Z,4.71
2019-04-06T02:59:48.171Z,4.68
2019-04-06T03:00:48.194Z,4.48
2019-04-06T03:01:48.224Z,4.38
2019-04-06T03:02:48.310Z,4.32
2019-04-06T03:03:48.285Z,4.34
2019-04-06T03:04:48.303Z,4.32
2019-04-06T03:05:48.331Z,4.22
2019-04-06T03:06:48.359Z,4.28
2019-04-06T03:07:48.656Z,4.27
2019-04-06T03:08:48.410Z,4.30
2019-04-06T03:09:48.439Z,4.24
2019-04-06T03:10:48.467Z,4.28
2019-04-06T03:11:48.559Z,4.27
2019-04-06T03:12:48.526Z,4.36
2019-04-06T03:13:48.545Z,4.53
2019-04-06T03:14:48.574Z,4.52
2019-04-06T03:15:48.624Z,4.34
2019-04-06T03:16:48.626Z,4.32
2019-04-06T03:17:48.652Z,4.28
2019-04-06T03:18:48.889Z,4.20
2019-04-06T03:19:48.706Z,4.16
2019-04-06T03:20:48.736Z,4.14
2019-04-06T03:21:48.867Z,4.24
2019-04-06T03:22:48.786Z,4.27
2019-04-06T03:23:51.484Z,4.22
2019-04-06T03:24:48.842Z,4.25
2019-04-06T03:25:48.870Z,4.18
2019-04-06T03:27:00.691Z,4.13
2019-04-06T03:27:48.921Z,4.14
2019-04-06T03:28:48.951Z,4.07
2019-04-06T03:29:57.569Z,4.20
2019-04-06T03:30:49.075Z,4.27
2019-04-06T03:31:49.171Z,4.32
2019-04-06T03:32:49.111Z,4.36
2019-04-06T03:33:49.081Z,4.14
2019-04-06T03:34:49.109Z,4.16
2019-04-06T03:35:50.621Z,4.20
2019-04-06T03:36:49.167Z,4.24
2019-04-06T03:37:49.187Z,4.07
2019-04-06T03:38:49.288Z,3.96
2019-04-06T03:39:49.241Z,4.12
2019-04-06T03:40:49.267Z,4.21
2019-04-06T03:41:49.441Z,4.10
2019-04-06T03:42:49.323Z,4.28
2019-04-06T03:43:49.347Z,4.20
2019-04-06T03:44:49.491Z,4.13
2019-04-06T03:45:49.402Z,4.06
2019-04-06T03:46:49.427Z,4.04
2019-04-06T03:47:49.454Z,3.95
2019-04-06T03:48:49.481Z,3.91
2019-04-06T03:49:49.512Z,3.89
2019-04-06T03:50:49.531Z,3.77
2019-04-06T03:51:49.566Z,4.03
2019-04-06T03:52:49.596Z,4.02
2019-04-06T03:53:49.867Z,4.03
2019-04-06T03:54:49.638Z,4.06
2019-04-06T03:55:49.666Z,4.13
2019-04-06T03:56:49.698Z,4.04
2019-04-06T03:57:49.721Z,4.14
2019-04-06T03:58:52.207Z,4.00
2019-04-06T03:59:49.771Z,4.06
2019-04-06T04:00:49.815Z,4.03
2019-04-06T04:01:49.826Z,4.03
2019-04-06T04:02:49.852Z,4.12
2019-04-06T04:03:50.115Z,4.12
2019-04-06T04:04:49.917Z,4.28
2019-04-06T04:05:49.935Z,4.18
2019-04-06T04:06:50.121Z,4.36
2019-04-06T04:07:49.991Z,4.31
2019-04-06T04:08:50.014Z,4.27
2019-04-06T04:09:50.038Z,4.28
2019-04-06T04:10:50.066Z,4.28
2019-04-06T04:11:50.095Z,4.28
2019-04-06T04:12:50.119Z,4.32
2019-04-06T04:13:50.147Z,4.22
2019-04-06T04:14:50.174Z,4.50
2019-04-06T04:15:50.205Z,4.57
2019-04-06T04:16:50.225Z,4.66
2019-04-06T04:17:50.436Z,4.63
2019-04-06T04:18:50.278Z,4.67
2019-04-06T04:19:50.310Z,4.60
2019-04-06T04:20:50.339Z,4.63
2019-04-06T04:21:50.366Z,4.70
2019-04-06T04:22:50.407Z,4.75
2019-04-06T04:23:50.420Z,4.76
2019-04-06T04:24:50.518Z,4.75
2019-04-06T04:25:50.469Z,4.68
2019-04-06T04:26:50.753Z,4.70
2019-04-06T04:27:50.578Z,4.94
2019-04-06T04:28:50.554Z,5.02
2019-04-06T04:29:50.581Z,5.18
2019-04-06T04:30:50.737Z,5.37
2019-04-06T04:31:50.632Z,5.38
2019-04-06T04:32:50.664Z,5.36
2019-04-06T04:33:50.687Z,5.38
2019-04-06T04:34:50.999Z,5.44
2019-04-06T04:35:50.746Z,5.26
2019-04-06T04:36:50.778Z,5.16
2019-04-06T04:37:50.803Z,5.10
2019-04-06T04:38:50.832Z,4.95
2019-04-06T04:39:50.862Z,4.97
2019-04-06T04:40:50.915Z,4.90
2019-04-06T04:41:50.913Z,4.97
2019-04-06T04:42:50.937Z,4.90
2019-04-06T04:43:50.971Z,4.97
2019-04-06T04:44:51.004Z,5.01
2019-04-06T04:45:51.043Z,5.16
2019-04-06T04:46:51.049Z,5.23
2019-04-06T04:47:51.291Z,5.40
2019-04-06T04:48:51.107Z,5.52
2019-04-06T04:49:51.338Z,5.54
2019-04-06T04:50:51.159Z,5.61
2019-04-06T04:51:51.197Z,5.64
2019-04-06T04:52:51.216Z,5.72
2019-04-06T04:53:51.249Z,5.92
2019-04-06T04:54:51.316Z,6.25
2019-04-06T04:55:51.303Z,6.41
2019-04-06T04:56:51.331Z,6.44
2019-04-06T04:57:51.359Z,6.86
2019-04-06T04:58:51.393Z,6.83
2019-04-06T04:59:51.417Z,7.00
2019-04-06T05:00:51.501Z,7.14
2019-04-06T05:01:51.482Z,7.08
2019-04-06T05:02:51.503Z,7.07
2019-04-06T05:03:51.531Z,6.85
2019-04-06T05:04:51.561Z,6.92
2019-04-06T05:05:51.592Z,7.03
2019-04-06T05:06:51.619Z,7.14
2019-04-06T05:07:51.647Z,7.14
2019-04-06T05:08:51.680Z,7.21
2019-04-06T05:09:51.709Z,7.26
2019-04-06T05:10:51.736Z,7.19
2019-04-06T05:11:51.770Z,7.46
2019-04-06T05:12:51.795Z,7.53
2019-04-06T05:13:51.825Z,7.59
2019-04-06T05:14:51.856Z,7.26
2019-04-06T05:15:51.886Z,7.43
2019-04-06T05:16:51.923Z,7.51
2019-04-06T05:17:51.946Z,7.67
2019-04-06T05:18:51.976Z,7.81
2019-04-06T05:19:52.007Z,8.05
2019-04-06T05:20:52.038Z,8.06
2019-04-06T05:21:52.070Z,7.85
2019-04-06T05:22:52.104Z,7.93
2019-04-06T05:23:52.129Z,7.70
2019-04-06T05:24:52.161Z,7.93
2019-04-06T05:25:52.191Z,8.17
2019-04-06T05:26:52.227Z,8.42
2019-04-06T05:27:53.163Z,8.53
2019-04-06T05:28:52.398Z,8.57
2019-04-06T05:29:52.317Z,8.77
2019-04-06T05:30:52.351Z,8.35
2019-04-06T05:31:52.380Z,8.66
2019-04-06T05:32:52.582Z,8.32
2019-04-06T05:33:52.559Z,8.42
2019-04-06T05:34:52.475Z,8.49
2019-04-06T05:35:52.507Z,8.53
2019-04-06T05:36:52.722Z,8.56
2019-04-06T05:37:52.574Z,8.35
2019-04-06T05:38:52.603Z,8.46
2019-04-06T05:39:52.635Z,8.52
2019-04-06T05:40:52.665Z,8.57
2019-04-06T05:41:52.750Z,9.21
2019-04-06T05:42:52.734Z,8.75
2019-04-06T05:43:52.764Z,8.75
2019-04-06T05:44:52.803Z,8.90
2019-04-06T05:45:52.831Z,9.29
2019-04-06T05:46:52.860Z,9.09
2019-04-06T05:47:52.894Z,9.02
2019-04-06T05:48:53.107Z,8.90
2019-04-06T05:49:52.963Z,8.75
2019-04-06T05:50:52.993Z,8.72
2019-04-06T05:51:53.027Z,9.11
2019-04-06T05:52:53.060Z,9.40
2019-04-06T05:53:53.115Z,9.51
2019-04-06T05:54:53.135Z,9.48
2019-04-06T05:55:53.160Z,9.45
2019-04-06T05:56:53.193Z,9.39
2019-04-06T05:58:02.917Z,9.09
2019-04-06T05:58:53.261Z,9.70
2019-04-06T05:59:53.492Z,9.99
2019-04-06T06:00:53.359Z,9.27
2019-04-06T06:01:53.394Z,9.70
2019-04-06T06:02:53.391Z,9.47
2019-04-06T06:03:53.430Z,9.82
2019-04-06T06:04:53.463Z,9.74
2019-04-06T06:05:53.499Z,9.67
2019-04-06T06:06:53.624Z,9.76
2019-04-06T06:07:53.565Z,9.88
2019-04-06T06:08:53.601Z,9.44
2019-04-06T06:09:53.633Z,9.45
2019-04-06T06:10:53.664Z,9.05
2019-04-06T06:11:55.614Z,9.16
2019-04-06T06:12:53.736Z,9.45
2019-04-06T06:13:53.771Z,9.39
2019-04-06T06:14:53.801Z,9.21
2019-04-06T06:15:53.837Z,9.12
2019-04-06T06:16:53.871Z,9.36
2019-04-06T06:17:53.908Z,9.84
2019-04-06T06:18:53.942Z,9.58
2019-04-06T06:19:53.974Z,10.03
2019-04-06T06:20:54.013Z,9.81
2019-04-06T06:21:54.042Z,9.56
2019-04-06T06:22:54.080Z,10.05
2019-04-06T06:23:54.321Z,9.80
2019-04-06T06:24:54.156Z,10.21
2019-04-06T06:25:54.184Z,10.87
2019-04-06T06:26:54.218Z,11.13
2019-04-06T06:27:54.250Z,10.43
2019-04-06T06:28:54.289Z,9.76
2019-04-06T06:29:54.538Z,10.65
2019-04-06T06:30:54.355Z,10.71
2019-04-06T06:31:54.393Z,11.05
2019-04-06T06:32:54.468Z,10.98
2019-04-06T06:33:54.463Z,10.13
2019-04-06T06:34:54.496Z,10.68
2019-04-06T06:35:54.533Z,10.83
2019-04-06T06:36:54.570Z,10.80
2019-04-06T06:37:54.604Z,10.20
2019-04-06T06:38:54.639Z,10.71
2019-04-06T06:39:54.675Z,10.75
2019-04-06T06:40:54.715Z,10.90
2019-04-06T06:41:54.749Z,9.90
2019-04-06T06:42:54.871Z,9.92
2019-04-06T06:43:54.818Z,10.25
2019-04-06T06:44:54.854Z,10.77
2019-04-06T06:45:54.903Z,10.36
2019-04-06T06:46:54.928Z,9.85
2019-04-06T06:47:54.969Z,10.03
2019-04-06T06:48:55.003Z,9.56
2019-04-06T06:49:55.046Z,10.07
2019-04-06T06:50:55.072Z,10.23
2019-04-06T06:51:55.107Z,10.46
2019-04-06T06:52:55.143Z,10.87
2019-04-06T06:53:55.181Z,11.27
2019-04-06T06:54:55.215Z,11.12
2019-04-06T06:55:55.423Z,10.98
2019-04-06T06:56:55.507Z,10.43
2019-04-06T06:57:55.372Z,10.69
2019-04-06T06:58:55.377Z,10.86
2019-04-06T06:59:55.398Z,10.48
2019-04-06T07:00:55.442Z,10.58
2019-04-06T07:01:55.472Z,10.45
2019-04-06T07:02:55.509Z,11.08
2019-04-06T07:03:55.564Z,10.36
2019-04-06T07:04:55.583Z,10.87
2019-04-06T07:05:55.619Z,11.40
2019-04-06T07:06:55.655Z,11.33
2019-04-06T07:07:55.694Z,11.45
2019-04-06T07:08:55.731Z,12.14
2019-04-06T07:10:04.470Z,11.77
2019-04-06T07:10:55.802Z,11.96
2019-04-06T07:11:55.935Z,10.90
2019-04-06T07:12:56.071Z,11.00
2019-04-06T07:13:55.916Z,11.55
2019-04-06T07:14:55.952Z,11.44
2019-04-06T07:15:55.993Z,10.94
2019-04-06T07:16:56.027Z,11.43
2019-04-06T07:17:56.065Z,11.10
2019-04-06T07:18:56.228Z,11.07
2019-04-06T07:19:56.142Z,10.95
2019-04-06T07:20:56.177Z,10.80
2019-04-06T07:21:56.217Z,11.13
2019-04-06T07:22:56.252Z,11.48
2019-04-06T07:23:56.290Z,11.88
2019-04-06T07:24:56.330Z,11.78
2019-04-06T07:25:58.792Z,12.15
2019-04-06T07:26:56.437Z,11.89
2019-04-06T07:27:56.857Z,11.49
2019-04-06T07:28:56.482Z,11.59
2019-04-06T07:29:56.594Z,12.03
2019-04-06T07:30:56.793Z,12.86
2019-04-06T07:31:56.598Z,13.36
2019-04-06T07:32:56.705Z,12.53
2019-04-06T07:33:56.674Z,11.77
2019-04-06T07:34:56.984Z,11.70
2019-04-06T07:35:56.884Z,11.20
2019-04-06T07:36:56.789Z,11.23
2019-04-06T07:37:56.828Z,11.25
2019-04-06T07:38:56.987Z,11.53
2019-04-06T07:39:56.907Z,11.80
2019-04-06T07:40:56.943Z,12.05
2019-04-06T07:41:56.983Z,12.72
2019-04-06T07:42:57.020Z,12.48
2019-04-06T07:43:57.060Z,12.14
2019-04-06T07:44:57.100Z,11.53
2019-04-06T07:45:57.142Z,11.01
2019-04-06T07:46:57.354Z,11.02
2019-04-06T07:47:57.221Z,11.31
2019-04-06T07:49:07.855Z,11.51
2019-04-06T07:49:57.298Z,12.23
2019-04-06T07:50:57.340Z,12.48
2019-04-06T07:51:57.389Z,12.72
2019-04-06T07:52:57.420Z,12.43
2019-04-06T07:53:57.459Z,11.67
2019-04-06T07:54:57.495Z,12.51
2019-04-06T07:55:57.536Z,12.65
2019-04-06T07:56:57.702Z,11.78
2019-04-06T07:57:57.617Z,12.37
2019-04-06T07:58:57.656Z,12.20
2019-04-06T07:59:57.699Z,12.62
2019-04-06T08:00:57.741Z,12.37
2019-04-06T08:01:57.778Z,12.18
2019-04-06T08:02:57.817Z,11.85
2019-04-06T08:03:58.099Z,12.07
2019-04-06T08:04:58.127Z,12.51
2019-04-06T08:05:57.948Z,12.65
2019-04-06T08:06:57.983Z,12.68
2019-04-06T08:07:58.021Z,12.43
2019-04-06T08:08:58.063Z,12.02
2019-04-06T08:09:58.105Z,12.20
2019-04-06T08:10:58.159Z,12.15
2019-04-06T08:11:58.184Z,12.40
2019-04-06T08:12:58.228Z,12.84
2019-04-06T08:13:58.266Z,11.30
2019-04-06T08:14:58.309Z,11.40
2019-04-06T08:15:58.349Z,11.13
2019-04-06T08:16:58.420Z,11.96
2019-04-06T08:17:58.473Z,12.33
2019-04-06T08:18:58.686Z,12.40
2019-04-06T08:19:58.511Z,12.39
2019-04-06T08:20:58.553Z,12.03
2019-04-06T08:21:58.595Z,12.21
2019-04-06T08:22:58.697Z,12.45
2019-04-06T08:23:58.678Z,12.28
2019-04-06T08:24:58.719Z,12.18
2019-04-06T08:25:58.764Z,12.20
2019-04-06T08:26:58.801Z,12.17
2019-04-06T08:27:58.843Z,12.39
2019-04-06T08:29:01.829Z,11.93
2019-04-06T08:29:59.103Z,11.81
2019-04-06T08:30:58.966Z,12.00
2019-04-06T08:31:59.007Z,13.05
2019-04-06T08:32:59.048Z,12.84
2019-04-06T08:33:59.238Z,12.54
2019-04-06T08:34:59.134Z,11.83
2019-04-06T08:35:59.178Z,12.25
2019-04-06T08:36:59.219Z,12.10
2019-04-06T08:37:59.257Z,11.96
2019-04-06T08:38:59.300Z,12.48
2019-04-06T08:39:59.357Z,12.65
2019-04-06T08:40:59.397Z,12.53
2019-04-06T08:41:59.432Z,11.74
2019-04-06T08:42:59.470Z,11.35
2019-04-06T08:43:59.511Z,12.03
2019-04-06T08:44:59.551Z,12.23
2019-04-06T08:45:59.593Z,12.39
2019-04-06T08:46:59.635Z,12.47
2019-04-06T08:47:59.841Z,11.34
2019-04-06T08:48:59.720Z,10.90
2019-04-06T08:49:59.761Z,10.84
2019-04-06T08:51:00.041Z,10.65
2019-04-06T08:51:59.853Z,10.51
2019-04-06T08:52:59.922Z,10.06
2019-04-06T08:53:59.933Z,10.24
2019-04-06T08:54:59.970Z,10.18
2019-04-06T08:56:00.022Z,10.98
2019-04-06T08:57:00.056Z,11.80
2019-04-06T08:58:00.095Z,12.69
2019-04-06T08:59:10.689Z,12.87
2019-04-06T09:00:00.265Z,12.00
2019-04-06T09:01:00.221Z,12.65
2019-04-06T09:02:00.262Z,12.84
2019-04-06T09:03:00.382Z,12.39
2019-04-06T09:04:00.351Z,12.68
2019-04-06T09:05:00.659Z,13.33
2019-04-06T09:06:00.426Z,12.70
2019-04-06T09:07:00.610Z,12.11
2019-04-06T09:08:00.509Z,11.68
2019-04-06T09:09:00.554Z,12.39
2019-04-06T09:10:00.908Z,12.25
2019-04-06T09:11:00.635Z,12.40
2019-04-06T09:12:00.675Z,12.32
2019-04-06T09:13:00.720Z,11.26
2019-04-06T09:14:00.760Z,11.58
2019-04-06T09:15:00.800Z,10.71
2019-04-06T09:16:01.704Z,11.04
2019-04-06T09:17:00.887Z,11.62
2019-04-06T09:18:01.202Z,11.13
2019-04-06T09:19:00.968Z,10.98
2019-04-06T09:20:01.016Z,11.37
2019-04-06T09:21:01.337Z,11.85
2019-04-06T09:22:01.096Z,12.08
2019-04-06T09:23:01.140Z,12.55
2019-04-06T09:24:01.176Z,12.11
2019-04-06T09:25:01.234Z,12.29
2019-04-06T09:26:01.262Z,12.32
2019-04-06T09:27:01.521Z,12.29
2019-04-06T09:28:01.342Z,11.99
2019-04-06T09:29:01.557Z,12.53
2019-04-06T09:30:01.742Z,12.03
2019-04-06T09:31:01.468Z,11.48
2019-04-06T09:32:01.510Z,12.03
2019-04-06T09:33:01.549Z,12.61
2019-04-06T09:34:01.593Z,12.00
2019-04-06T09:35:01.642Z,12.17
2019-04-06T09:36:02.509Z,12.30
2019-04-06T09:37:01.857Z,12.21
2019-04-06T09:38:01.983Z,12.53
2019-04-06T09:39:01.798Z,12.81
2019-04-06T09:40:01.843Z,12.72
2019-04-06T09:41:01.930Z,13.19
2019-04-06T09:42:01.927Z,12.62
2019-04-06T09:43:01.967Z,11.68
2019-04-06T09:44:02.013Z,11.58
2019-04-06T09:45:02.051Z,11.86
2019-04-06T09:46:02.349Z,11.65
2019-04-06T09:47:02.138Z,12.29
2019-04-06T09:48:02.177Z,12.48
2019-04-06T09:49:02.482Z,12.03
2019-04-06T09:50:02.521Z,11.58
2019-04-06T09:51:02.296Z,11.74
2019-04-06T09:52:02.345Z,11.31
2019-04-06T09:53:02.383Z,10.84
2019-04-06T09:54:06.199Z,11.48
2019-04-06T09:55:02.463Z,11.80
2019-04-06T09:56:02.756Z,11.73
2019-04-06T09:57:02.549Z,12.18
2019-04-06T09:58:02.586Z,12.25
2019-04-06T09:59:02.626Z,12.69
2019-04-06T10:00:02.668Z,13.11
2019-04-06T10:01:02.712Z,13.16
2019-04-06T10:02:02.754Z,13.05
2019-04-06T10:03:02.790Z,13.21
2019-04-06T10:04:02.831Z,14.00
2019-04-06T10:05:02.874Z,12.94
2019-04-06T10:06:02.918Z,12.47
2019-04-06T10:07:03.093Z,12.66
2019-04-06T10:08:03.339Z,13.05
2019-04-06T10:09:03.038Z,13.06
2019-04-06T10:10:03.085Z,13.08
2019-04-06T10:11:03.121Z,13.50
2019-04-06T10:12:04.459Z,14.07
2019-04-06T10:13:03.206Z,14.38
2019-04-06T10:14:03.249Z,14.11
2019-04-06T10:15:03.288Z,13.94
2019-04-06T10:16:03.331Z,13.65
2019-04-06T10:17:03.446Z,13.60
2019-04-06T10:18:03.416Z,13.30
2019-04-06T10:19:03.457Z,13.45
2019-04-06T10:20:03.504Z,14.01
2019-04-06T10:21:03.544Z,14.23
2019-04-06T10:22:03.585Z,14.43
2019-04-06T10:23:03.628Z,14.48
2019-04-06T10:24:03.668Z,14.22
2019-04-06T10:25:03.951Z,13.79
2019-04-06T10:26:03.758Z,13.46
2019-04-06T10:27:03.843Z,13.03
2019-04-06T10:28:03.845Z,12.48
2019-04-06T10:29:04.131Z,12.70
2019-04-06T10:30:03.926Z,13.31
2019-04-06T10:31:03.969Z,13.33
2019-04-06T10:32:04.296Z,13.23
2019-04-06T10:33:04.373Z,13.75
2019-04-06T10:34:04.313Z,13.76
2019-04-06T10:35:04.134Z,13.24
2019-04-06T10:36:04.206Z,13.76
2019-04-06T10:37:04.223Z,13.68
2019-04-06T10:38:04.337Z,14.56
2019-04-06T10:39:04.557Z,13.70
2019-04-06T10:40:04.343Z,14.16
2019-04-06T10:41:04.391Z,14.58
2019-04-06T10:42:04.697Z,15.15
2019-04-06T10:43:04.470Z,15.44
2019-04-06T10:44:04.796Z,15.30
2019-04-06T10:45:04.993Z,15.35
2019-04-06T10:46:04.716Z,15.07
2019-04-06T10:47:04.687Z,14.61
2019-04-06T10:48:04.689Z,14.12
2019-04-06T10:49:04.723Z,14.34
2019-04-06T10:50:04.765Z,14.73
2019-04-06T10:51:04.933Z,15.35
2019-04-06T10:52:04.851Z,15.85
2019-04-06T10:53:04.893Z,16.25
2019-04-06T10:54:05.203Z,15.81
2019-04-06T10:55:04.983Z,15.80
2019-04-06T10:56:05.021Z,15.99
2019-04-06T10:57:05.063Z,15.66
2019-04-06T10:58:05.109Z,14.97
2019-04-06T10:59:05.155Z,14.38
2019-04-06T11:00:05.343Z,14.44
2019-04-06T11:01:05.235Z,14.63
2019-04-06T11:02:05.279Z,15.17
2019-04-06T11:03:05.322Z,15.12
2019-04-06T11:04:05.414Z,14.96
2019-04-06T11:05:05.550Z,14.89
2019-04-06T11:06:05.452Z,15.50
2019-04-06T11:07:05.504Z,14.78
2019-04-06T11:08:05.536Z,14.53
2019-04-06T11:09:05.579Z,14.48
2019-04-06T11:10:05.625Z,13.75
2019-04-06T11:11:05.664Z,13.54
2019-04-06T11:12:05.710Z,13.78
2019-04-06T11:13:05.758Z,14.20
2019-04-06T11:14:05.793Z,14.49
2019-04-06T11:15:05.954Z,14.77
2019-04-06T11:16:05.878Z,14.40
2019-04-06T11:17:05.921Z,14.15
2019-04-06T11:18:05.964Z,13.93
2019-04-06T11:19:06.014Z,13.30
2019-04-06T11:20:06.048Z,13.40
2019-04-06T11:21:06.090Z,13.71
2019-04-06T11:22:06.332Z,13.60
2019-04-06T11:23:06.181Z,13.83
2019-04-06T11:24:06.249Z,13.78
2019-04-06T11:25:06.258Z,13.94
2019-04-06T11:26:06.301Z,14.77
2019-04-06T11:27:06.341Z,14.25
2019-04-06T11:28:06.386Z,14.03
2019-04-06T11:29:06.427Z,13.95
2019-04-06T11:30:12.800Z,13.60
2019-04-06T11:31:06.510Z,14.25
2019-04-06T11:32:06.549Z,13.93
2019-04-06T11:33:06.596Z,14.86
2019-04-06T11:34:06.826Z,14.89
2019-04-06T11:35:06.946Z,15.12
2019-04-06T11:36:06.717Z,14.33
2019-04-06T11:37:06.761Z,14.05
2019-04-06T11:38:06.800Z,14.89
2019-04-06T11:39:06.839Z,15.41
2019-04-06T11:40:06.881Z,14.41
2019-04-06T11:41:06.925Z,13.83
2019-04-06T11:42:06.969Z,14.05
2019-04-06T11:43:07.009Z,14.45
2019-04-06T11:44:07.237Z,14.59
2019-04-06T11:45:07.090Z,15.32
2019-04-06T11:46:07.233Z,15.22
2019-04-06T11:47:07.177Z,14.82
2019-04-06T11:48:07.315Z,14.82
2019-04-06T11:49:07.600Z,14.56
2019-04-06T11:50:07.301Z,14.67
2019-04-06T11:51:07.474Z,13.83
2019-04-06T11:52:07.387Z,13.76
2019-04-06T11:53:07.622Z,13.73
2019-04-06T11:54:07.468Z,13.76
2019-04-06T11:55:07.508Z,13.50
2019-04-06T11:56:07.550Z,14.23
2019-04-06T11:57:07.599Z,14.04
2019-04-06T11:58:07.636Z,14.26
2019-04-06T11:59:07.676Z,14.22
2019-04-06T12:00:07.718Z,14.70
2019-04-06T12:01:07.763Z,14.56
2019-04-06T12:02:07.804Z,14.45
2019-04-06T12:03:07.850Z,13.76
2019-04-06T12:04:07.884Z,13.97
2019-04-06T12:05:07.925Z,14.22
2019-04-06T12:06:07.968Z,14.26
2019-04-06T12:07:08.013Z,14.53
2019-04-06T12:08:08.053Z,14.28
2019-04-06T12:09:08.159Z,13.94
2019-04-06T12:10:08.135Z,14.33
2019-04-06T12:11:08.179Z,14.38
2019-04-06T12:12:08.384Z,14.12
2019-04-06T12:13:08.259Z,14.05
2019-04-06T12:14:08.303Z,14.74
2019-04-06T12:15:08.502Z,14.62
2019-04-06T12:16:08.383Z,13.79
2019-04-06T12:17:08.426Z,13.79
2019-04-06T12:18:08.470Z,13.79
2019-04-06T12:19:08.561Z,13.27
2019-04-06T12:20:08.558Z,13.42
2019-04-06T12:21:08.597Z,13.68
2019-04-06T12:22:08.639Z,13.71
2019-04-06T12:23:08.678Z,12.93
2019-04-06T12:24:08.718Z,13.11
2019-04-06T12:25:08.935Z,13.28
2019-04-06T12:26:08.798Z,13.45
2019-04-06T12:27:08.838Z,13.54
2019-04-06T12:28:08.880Z,13.31
2019-04-06T12:29:08.922Z,13.62
2019-04-06T12:30:08.965Z,13.24
2019-04-06T12:31:09.014Z,13.52
2019-04-06T12:32:09.047Z,13.13
2019-04-06T12:33:09.088Z,13.17
2019-04-06T12:34:09.130Z,13.50
2019-04-06T12:35:09.170Z,13.26
2019-04-06T12:36:09.299Z,13.33
2019-04-06T12:37:09.254Z,13.20
2019-04-06T12:38:09.299Z,13.60
2019-04-06T12:39:09.701Z,13.23
2019-04-06T12:40:09.379Z,13.39
2019-04-06T12:41:09.714Z,13.36
2019-04-06T12:42:09.584Z,13.19
2019-04-06T12:43:09.498Z,13.33
2019-04-06T12:44:09.794Z,13.57
2019-04-06T12:45:09.581Z,13.24
2019-04-06T12:46:09.622Z,13.49
2019-04-06T12:47:09.688Z,13.65
2019-04-06T12:48:09.716Z,13.87
2019-04-06T12:49:10.117Z,13.67
2019-04-06T12:50:09.788Z,13.30
2019-04-06T12:51:09.824Z,13.76
2019-04-06T12:52:09.864Z,13.19
2019-04-06T12:53:09.907Z,13.79
2019-04-06T12:54:09.947Z,13.82
2019-04-06T12:55:09.999Z,13.82
2019-04-06T12:56:10.457Z,14.13
2019-04-06T12:57:10.074Z,14.08
2019-04-06T12:58:10.111Z,13.91
2019-04-06T12:59:10.160Z,13.76
2019-04-06T13:00:10.191Z,14.11
2019-04-06T13:01:10.236Z,14.49
2019-04-06T13:02:10.275Z,14.00
2019-04-06T13:03:10.317Z,14.11
2019-04-06T13:04:10.421Z,14.04
2019-04-06T13:05:12.572Z,13.62
2019-04-06T13:06:10.440Z,13.83